createdAt,value
2023-03-26T00:00:03.040Z,6.87
2023-03-26T00:05:08.017Z,6.86
2023-03-26T00:10:12.875Z,6.81
2023-03-26T00:14:57.900Z,6.74
2023-03-26T00:19:43.957Z,6.68
2023-03-26T00:24:38.775Z,6.64
2023-03-26T00:29:04.840Z,6.69
2023-03-26T00:33:28.855Z,6.65
2023-03-26T00:38:33.048Z,6.53
2023-03-26T00:42:59.045Z,6.47
2023-03-26T00:47:47.273Z,6.43
2023-03-26T00:52:53.302Z,6.40
2023-03-26T00:57:32.724Z,6.32
2023-03-26T01:02:00.442Z,6.26
2023-03-26T01:07:09.015Z,6.19
2023-03-26T01:12:17.013Z,6.14
2023-03-26T01:21:33.868Z,5.94
2023-03-26T01:26:18.541Z,5.86
2023-03-26T01:31:20.649Z,5.78
2023-03-26T01:36:45.945Z,5.71
2023-03-26T01:41:36.596Z,5.71
2023-03-26T01:46:20.396Z,5.69
2023-03-26T01:55:50.179Z,5.60
2023-03-26T02:01:06.208Z,5.64
2023-03-26T02:06:10.752Z,5.51
2023-03-26T02:11:16.020Z,5.38
2023-03-26T02:16:19.418Z,5.32
2023-03-26T02:20:51.752Z,5.33
2023-03-26T02:25:16.204Z,5.36
2023-03-26T02:29:40.247Z,5.42
2023-03-26T02:34:45.363Z,5.37
2023-03-26T02:39:49.181Z,5.17
2023-03-26T02:44:53.978Z,5.02
2023-03-26T02:49:59.373Z,4.98
2023-03-26T02:55:07.382Z,4.86
2023-03-26T02:59:52.033Z,4.63
2023-03-26T03:04:56.889Z,4.57
2023-03-26T03:09:41.012Z,4.55
2023-03-26T03:14:44.983Z,4.52
2023-03-26T03:19:33.453Z,4.42
2023-03-26T03:24:00.162Z,4.35
2023-03-26T03:28:25.580Z,4.31
2023-03-26T03:32:49.720Z,4.21
2023-03-26T03:37:18.573Z,4.16
2023-03-26T03:41:42.735Z,4.11
2023-03-26T03:46:27.311Z,4.07
2023-03-26T03:51:31.110Z,4.02
2023-03-26T03:56:17.250Z,3.94
2023-03-26T04:01:35.019Z,3.82
2023-03-26T04:06:38.973Z,3.74
2023-03-26T04:11:43.855Z,3.62
2023-03-26T04:16:12.342Z,3.48
2023-03-26T04:20:58.289Z,3.31
2023-03-26T04:25:43.698Z,3.24
2023-03-26T04:30:28.772Z,3.24
2023-03-26T04:35:47.102Z,3.22
2023-03-26T04:40:56.590Z,3.15
2023-03-26T04:46:11.039Z,3.09
2023-03-26T04:51:24.883Z,3.07
2023-03-26T04:56:40.931Z,3.10
2023-03-26T05:01:47.075Z,3.03
2023-03-26T05:06:31.883Z,3.05
2023-03-26T05:11:52.771Z,3.17
2023-03-26T05:16:53.126Z,3.37
2023-03-26T05:21:58.949Z,3.57
2023-03-26T05:26:43.080Z,3.75
2023-03-26T05:31:52.599Z,3.88
2023-03-26T05:36:59.547Z,4.05
2023-03-26T05:42:04.750Z,4.20
2023-03-26T05:46:51.008Z,4.33
2023-03-26T05:51:55.597Z,4.43
2023-03-26T05:56:44.392Z,4.53
2023-03-26T06:01:46.642Z,4.64
2023-03-26T06:06:33.119Z,4.81
2023-03-26T06:11:42.012Z,4.97
2023-03-26T06:16:46.914Z,5.16
2023-03-26T06:21:51.818Z,5.42
2023-03-26T06:26:36.024Z,5.68
2023-03-26T06:31:40.445Z,5.91
2023-03-26T06:36:46.450Z,6.23
2023-03-26T06:41:33.436Z,6.52
2023-03-26T06:46:44.070Z,6.92
2023-03-26T06:51:46.508Z,7.36
2023-03-26T06:56:59.665Z,7.70
2023-03-26T07:02:09.210Z,7.93
2023-03-26T07:07:12.866Z,8.21
2023-03-26T07:12:06.297Z,8.65
2023-03-26T07:16:56.642Z,9.14
2023-03-26T07:22:06.594Z,9.56
2023-03-26T07:27:12.988Z,10.08
2023-03-26T07:32:06.092Z,10.56
2023-03-26T07:36:53.535Z,11.19
2023-03-26T07:41:56.748Z,11.77
2023-03-26T07:46:41.566Z,12.26
2023-03-26T07:51:28.744Z,12.60
2023-03-26T07:56:46.088Z,12.97
2023-03-26T08:02:00.332Z,13.42
2023-03-26T08:06:32.579Z,13.25
2023-03-26T08:11:26.606Z,13.42
2023-03-26T08:16:33.579Z,13.74
2023-03-26T08:21:18.994Z,13.84
2023-03-26T08:26:15.646Z,13.77
2023-03-26T08:31:22.453Z,13.97
2023-03-26T08:35:47.617Z,14.00
2023-03-26T08:40:15.227Z,14.14
2023-03-26T08:44:46.751Z,14.42
2023-03-26T08:49:19.597Z,14.51
2023-03-26T08:54:23.136Z,14.70
2023-03-26T08:59:11.421Z,15.01
2023-03-26T09:04:20.255Z,15.21
2023-03-26T09:09:42.431Z,15.52
2023-03-26T09:14:55.729Z,15.79
2023-03-26T09:19:48.945Z,16.00
2023-03-26T09:24:15.800Z,15.95
2023-03-26T09:28:38.317Z,15.91
2023-03-26T09:33:43.966Z,15.99
2023-03-26T09:38:40.091Z,16.12
2023-03-26T09:43:22.691Z,15.89
2023-03-26T09:47:50.231Z,15.91
2023-03-26T09:52:33.061Z,16.12
2023-03-26T09:57:42.864Z,16.37
2023-03-26T10:03:01.219Z,16.54
2023-03-26T10:07:34.433Z,16.74
2023-03-26T10:12:20.027Z,16.94
2023-03-26T10:17:32.825Z,16.90
2023-03-26T10:22:22.327Z,16.63
2023-03-26T10:27:17.305Z,16.77
2023-03-26T10:32:22.797Z,16.95
2023-03-26T10:37:19.012Z,17.05
2023-03-26T10:41:58.729Z,17.25
2023-03-26T10:46:38.478Z,17.11
2023-03-26T10:51:34.915Z,16.33
2023-03-26T10:56:20.168Z,15.86
2023-03-26T11:01:15.539Z,15.33
2023-03-26T11:05:41.076Z,14.88
2023-03-26T11:10:55.875Z,14.53
2023-03-26T11:15:20.498Z,14.27
2023-03-26T11:20:02.683Z,14.05
2023-03-26T11:25:06.854Z,13.91
2023-03-26T11:29:58.795Z,13.81
2023-03-26T11:34:25.737Z,13.80
2023-03-26T11:39:27.929Z,13.68
2023-03-26T11:43:53.014Z,13.55
2023-03-26T11:48:19.567Z,13.42
2023-03-26T11:52:44.918Z,13.36
2023-03-26T11:57:08.415Z,13.60
2023-03-26T12:01:33.572Z,13.79
2023-03-26T12:06:04.746Z,13.75
2023-03-26T12:10:37.524Z,13.71
2023-03-26T12:15:02.554Z,13.57
2023-03-26T12:19:26.245Z,13.56
2023-03-26T12:23:49.224Z,13.62
2023-03-26T12:28:19.638Z,13.87
2023-03-26T12:32:55.407Z,14.34
2023-03-26T12:37:39.224Z,14.94
2023-03-26T12:44:46.164Z,15.39
2023-03-26T12:47:59.034Z,15.41
2023-03-26T12:52:02.766Z,15.41
2023-03-26T12:57:11.991Z,15.55
2023-03-26T13:02:02.549Z,15.85
2023-03-26T13:07:17.768Z,16.01
2023-03-26T13:12:05.997Z,16.33
2023-03-26T13:17:13.769Z,16.00
2023-03-26T13:21:53.794Z,15.58
2023-03-26T13:26:33.302Z,15.17
2023-03-26T13:31:18.472Z,15.01
2023-03-26T13:35:51.591Z,14.88
2023-03-26T13:40:43.655Z,14.74
2023-03-26T13:45:30.207Z,14.52
2023-03-26T13:50:26.309Z,14.39
2023-03-26T13:55:26.980Z,14.16
2023-03-26T14:00:46.000Z,14.08
2023-03-26T14:05:31.511Z,14.01
2023-03-26T14:10:35.345Z,13.83
2023-03-26T14:15:08.245Z,13.87
2023-03-26T14:20:11.929Z,13.92
2023-03-26T14:25:26.117Z,13.94
2023-03-26T14:30:19.414Z,13.89
2023-03-26T14:35:18.515Z,13.95
2023-03-26T14:40:08.301Z,13.86
2023-03-26T14:45:12.381Z,13.87
2023-03-26T14:49:42.290Z,13.83
2023-03-26T14:54:30.138Z,13.89
2023-03-26T14:59:25.902Z,13.78
2023-03-26T15:04:11.318Z,13.71
2023-03-26T15:08:53.950Z,13.74
2023-03-26T15:13:49.444Z,13.90
2023-03-26T15:19:08.412Z,13.95
2023-03-26T15:23:58.336Z,13.87
2023-03-26T15:28:27.874Z,13.75
2023-03-26T15:32:56.070Z,13.63
2023-03-26T15:37:17.581Z,13.46
2023-03-26T15:42:06.006Z,13.30
2023-03-26T15:46:34.259Z,13.11
2023-03-26T15:51:16.565Z,12.93
2023-03-26T15:55:46.398Z,12.76
2023-03-26T16:00:42.399Z,12.58
2023-03-26T16:05:29.477Z,12.42
2023-03-26T16:09:58.166Z,12.31
2023-03-26T16:14:23.594Z,12.24
2023-03-26T16:18:50.669Z,12.17
2023-03-26T16:23:35.048Z,12.12
2023-03-26T16:28:07.374Z,12.06
2023-03-26T16:33:06.381Z,12.00
2023-03-26T16:37:57.496Z,11.86
2023-03-26T16:43:21.615Z,11.70
2023-03-26T16:48:20.856Z,11.56
2023-03-26T16:52:49.217Z,11.47
2023-03-26T16:57:18.269Z,11.41
2023-03-26T17:01:41.838Z,11.32
2023-03-26T17:07:09.540Z,11.17
2023-03-26T17:12:01.405Z,11.04
2023-03-26T17:17:06.708Z,10.88
2023-03-26T17:21:54.518Z,10.67
2023-03-26T17:27:01.292Z,10.43
2023-03-26T17:32:20.723Z,10.29
2023-03-26T17:36:56.133Z,10.23
2023-03-26T17:41:38.500Z,10.22
2023-03-26T17:46:04.352Z,10.26
2023-03-26T17:50:29.104Z,10.32
2023-03-26T17:55:32.487Z,10.36
2023-03-26T18:00:36.574Z,10.34
2023-03-26T18:05:00.585Z,10.28
2023-03-26T18:10:08.321Z,10.24
2023-03-26T18:15:10.239Z,10.23
2023-03-26T18:19:58.077Z,10.11
2023-03-26T18:24:41.790Z,10.00
2023-03-26T18:29:30.033Z,9.90
2023-03-26T18:34:14.224Z,9.82
2023-03-26T18:38:59.323Z,9.77
2023-03-26T18:43:56.599Z,9.74
2023-03-26T18:49:03.672Z,9.72
2023-03-26T18:53:56.079Z,9.67
2023-03-26T18:59:08.850Z,9.51
2023-03-26T19:03:57.396Z,9.37
2023-03-26T19:08:41.469Z,9.29
2023-03-26T19:13:10.738Z,9.19
2023-03-26T19:17:43.432Z,9.10
2023-03-26T19:22:07.470Z,9.03
2023-03-26T19:26:43.484Z,8.98
2023-03-26T19:31:38.405Z,8.89
2023-03-26T19:36:05.823Z,8.83
2023-03-26T19:40:35.783Z,8.74
2023-03-26T19:45:06.334Z,8.68
2023-03-26T19:49:32.472Z,8.62
2023-03-26T19:54:12.648Z,8.54
2023-03-26T19:59:17.759Z,8.55
2023-03-26T20:03:42.884Z,8.67
2023-03-26T20:08:08.829Z,8.75
2023-03-26T20:12:35.400Z,8.81
2023-03-26T20:17:41.771Z,8.83
2023-03-26T20:22:07.398Z,8.84
2023-03-26T20:26:31.989Z,8.81
2023-03-26T20:30:56.260Z,8.77
2023-03-26T20:35:35.819Z,8.73
2023-03-26T20:40:13.583Z,8.78
2023-03-26T20:45:21.625Z,8.77
2023-03-26T20:49:45.305Z,8.74
2023-03-26T20:54:25.342Z,8.73
2023-03-26T20:58:54.735Z,8.73
2023-03-26T21:03:23.480Z,8.74
2023-03-26T21:08:09.916Z,8.74
2023-03-26T21:13:05.844Z,8.62
2023-03-26T21:18:16.028Z,8.60
2023-03-26T21:23:20.157Z,8.83
2023-03-26T21:28:02.866Z,9.05
2023-03-26T21:32:30.866Z,9.15
2023-03-26T21:37:17.842Z,9.09
2023-03-26T21:42:06.051Z,8.93
2023-03-26T21:46:41.546Z,8.77
2023-03-26T21:51:46.571Z,8.68
2023-03-26T21:56:39.437Z,8.51
2023-03-26T22:01:46.842Z,8.41
2023-03-26T22:06:39.386Z,8.29
2023-03-26T22:11:24.834Z,8.20
2023-03-26T22:15:59.323Z,8.16
2023-03-26T22:21:04.226Z,8.11
2023-03-26T22:25:48.679Z,8.13
2023-03-26T22:30:35.709Z,8.12
2023-03-26T22:35:51.248Z,8.09
2023-03-26T22:40:58.928Z,7.87
2023-03-26T22:46:05.880Z,7.71
2023-03-26T22:51:10.068Z,7.77
2023-03-26T22:56:20.793Z,7.81
2023-03-26T23:01:07.286Z,7.67
2023-03-26T23:06:14.376Z,7.52
2023-03-26T23:10:58.929Z,7.53
2023-03-26T23:15:23.000Z,7.56
2023-03-26T23:19:47.390Z,7.53
2023-03-26T23:24:33.326Z,7.50
2023-03-26T23:29:22.031Z,7.55
2023-03-26T23:34:25.945Z,7.74
2023-03-26T23:39:15.804Z,7.72
2023-03-26T23:43:55.878Z,7.59
2023-03-26T23:48:45.334Z,7.56
2023-03-26T23:53:37.100Z,7.54
2023-03-26T23:58:26.113Z,7.47
